Sussex, Wyoming
Current Conditions -  °F | °C
As of 4:53 AM on Monday 26 Jan 2015 (Local Time) from KBYG Reporting Station
Clear Clear  
Wind Chill: 47°   Ceiling: Unl
Heat Index: 47°   Visibility: 10mi
Dew Point: 25°   Wind: 3mph
Humidity: 42%   Direction: 200°SSW
Pressure: 30.11"   Gusts: NA
Location:  43.8063°N, 106.549°W
Report Text: KBYG 261153Z AUTO 20003KT 10SM CLR 08/M04 A3011 RMK AO2 SLP182 T00831039 10117 20039 58007 $
Loading
Personal Weather Stations






























Interactive Weather Map New forecast layout! Learn more

10-Day Weather Forecast

Advertisements
Track Severe Weather on mobile